sensor_id;sensor_type;location;lat;lon;timestamp;P1;durP1;ratioP1;P2;durP2;ratioP2
78664;SDS011;67981;51.022;-2.870;2023-05-07T00:00:52;18.20;;;9.68;;
78664;SDS011;67981;51.022;-2.870;2023-05-07T00:03:17;14.73;;;8.30;;
78664;SDS011;67981;51.022;-2.870;2023-05-07T00:05:44;18.63;;;8.90;;
78664;SDS011;67981;51.022;-2.870;2023-05-07T00:08:09;15.98;;;10.27;;
78664;SDS011;67981;51.022;-2.870;2023-05-07T00:10:35;14.98;;;9.15;;
78664;SDS011;67981;51.022;-2.870;2023-05-07T00:13:00;16.98;;;9.68;;
78664;SDS011;67981;51.022;-2.870;2023-05-07T00:15:25;17.50;;;10.88;;
78664;SDS011;67981;51.022;-2.870;2023-05-07T00:17:51;16.60;;;8.52;;
78664;SDS011;67981;51.022;-2.870;2023-05-07T00:20:16;16.73;;;8.88;;
78664;SDS011;67981;51.022;-2.870;2023-05-07T00:22:42;17.05;;;9.02;;
78664;SDS011;67981;51.022;-2.870;2023-05-07T00:25:07;14.05;;;8.90;;
78664;SDS011;67981;51.022;-2.870;2023-05-07T00:27:33;16.15;;;8.48;;
78664;SDS011;67981;51.022;-2.870;2023-05-07T00:29:58;14.70;;;8.38;;
78664;SDS011;67981;51.022;-2.870;2023-05-07T00:32:23;14.63;;;8.60;;
78664;SDS011;67981;51.022;-2.870;2023-05-07T00:34:49;18.53;;;8.83;;
78664;SDS011;67981;51.022;-2.870;2023-05-07T00:37:15;15.95;;;8.43;;
78664;SDS011;67981;51.022;-2.870;2023-05-07T00:39:41;13.95;;;8.40;;
78664;SDS011;67981;51.022;-2.870;2023-05-07T00:42:06;14.77;;;8.50;;
78664;SDS011;67981;51.022;-2.870;2023-05-07T00:44:33;15.82;;;8.77;;
78664;SDS011;67981;51.022;-2.870;2023-05-07T00:46:58;11.90;;;7.38;;
78664;SDS011;67981;51.022;-2.870;2023-05-07T00:49:35;13.82;;;8.73;;
78664;SDS011;67981;51.022;-2.870;2023-05-07T00:52:04;12.07;;;7.28;;
78664;SDS011;67981;51.022;-2.870;2023-05-07T00:54:31;13.38;;;7.50;;
78664;SDS011;67981;51.022;-2.870;2023-05-07T00:56:58;14.05;;;7.47;;
78664;SDS011;67981;51.022;-2.870;2023-05-07T00:59:24;14.90;;;7.70;;
78664;SDS011;67981;51.022;-2.870;2023-05-07T01:01:49;11.85;;;6.72;;
78664;SDS011;67981;51.022;-2.870;2023-05-07T01:04:15;12.50;;;7.68;;
78664;SDS011;67981;51.022;-2.870;2023-05-07T01:06:40;11.88;;;6.28;;
78664;SDS011;67981;51.022;-2.870;2023-05-07T01:09:06;14.07;;;6.30;;
78664;SDS011;67981;51.022;-2.870;2023-05-07T01:11:34;12.13;;;6.03;;
78664;SDS011;67981;51.022;-2.870;2023-05-07T01:13:59;12.82;;;5.88;;
78664;SDS011;67981;51.022;-2.870;2023-05-07T01:16:25;11.20;;;6.53;;
78664;SDS011;67981;51.022;-2.870;2023-05-07T01:18:51;15.20;;;5.57;;
78664;SDS011;67981;51.022;-2.870;2023-05-07T01:21:17;11.13;;;5.28;;
78664;SDS011;67981;51.022;-2.870;2023-05-07T01:23:43;10.40;;;5.85;;
78664;SDS011;67981;51.022;-2.870;2023-05-07T01:26:10;12.60;;;6.25;;
78664;SDS011;67981;51.022;-2.870;2023-05-07T01:28:35;12.88;;;5.45;;
78664;SDS011;67981;51.022;-2.870;2023-05-07T01:31:02;8.90;;;4.47;;
78664;SDS011;67981;51.022;-2.870;2023-05-07T01:33:31;9.20;;;5.13;;
78664;SDS011;67981;51.022;-2.870;2023-05-07T01:36:00;13.15;;;5.28;;
78664;SDS011;67981;51.022;-2.870;2023-05-07T01:38:28;13.05;;;6.03;;
78664;SDS011;67981;51.022;-2.870;2023-05-07T01:40:54;10.10;;;4.40;;
78664;SDS011;67981;51.022;-2.870;2023-05-07T01:43:20;9.68;;;5.03;;
78664;SDS011;67981;51.022;-2.870;2023-05-07T01:45:46;8.68;;;5.68;;
78664;SDS011;67981;51.022;-2.870;2023-05-07T01:48:14;9.52;;;4.53;;
78664;SDS011;67981;51.022;-2.870;2023-05-07T01:50:40;13.88;;;5.10;;
78664;SDS011;67981;51.022;-2.870;2023-05-07T01:53:07;12.13;;;4.22;;
78664;SDS011;67981;51.022;-2.870;2023-05-07T01:55:33;7.05;;;3.85;;
78664;SDS011;67981;51.022;-2.870;2023-05-07T01:57:58;9.73;;;4.35;;
78664;SDS011;67981;51.022;-2.870;2023-05-07T02:00:24;8.40;;;4.67;;
78664;SDS011;67981;51.022;-2.870;2023-05-07T02:02:50;9.80;;;3.92;;
78664;SDS011;67981;51.022;-2.870;2023-05-07T02:05:16;9.07;;;4.57;;
78664;SDS011;67981;51.022;-2.870;2023-05-07T02:07:42;12.05;;;3.67;;
78664;SDS011;67981;51.022;-2.870;2023-05-07T02:10:07;11.35;;;3.95;;
78664;SDS011;67981;51.022;-2.870;2023-05-07T02:12:33;7.60;;;3.78;;
78664;SDS011;67981;51.022;-2.870;2023-05-07T02:14:58;9.32;;;3.08;;
78664;SDS011;67981;51.022;-2.870;2023-05-07T02:17:23;6.82;;;3.40;;
78664;SDS011;67981;51.022;-2.870;2023-05-07T02:19:49;10.40;;;3.97;;
78664;SDS011;67981;51.022;-2.870;2023-05-07T02:22:14;9.88;;;3.42;;
78664;SDS011;67981;51.022;-2.870;2023-05-07T02:24:40;8.70;;;3.80;;
78664;SDS011;67981;51.022;-2.870;2023-05-07T02:27:05;8.77;;;3.33;;
78664;SDS011;67981;51.022;-2.870;2023-05-07T02:29:31;9.80;;;4.20;;
78664;SDS011;67981;51.022;-2.870;2023-05-07T02:31:57;12.57;;;4.75;;
78664;SDS011;67981;51.022;-2.870;2023-05-07T02:34:22;8.50;;;3.85;;
78664;SDS011;67981;51.022;-2.870;2023-05-07T02:36:47;15.40;;;5.10;;
78664;SDS011;67981;51.022;-2.870;2023-05-07T02:39:13;9.47;;;4.07;;
78664;SDS011;67981;51.022;-2.870;2023-05-07T02:41:39;11.90;;;5.10;;
78664;SDS011;67981;51.022;-2.870;2023-05-07T02:44:04;11.93;;;4.15;;
78664;SDS011;67981;51.022;-2.870;2023-05-07T02:46:30;9.90;;;3.85;;
78664;SDS011;67981;51.022;-2.870;2023-05-07T02:48:56;6.85;;;3.72;;
78664;SDS011;67981;51.022;-2.870;2023-05-07T02:51:21;9.57;;;3.65;;
78664;SDS011;67981;51.022;-2.870;2023-05-07T02:53:47;11.13;;;4.18;;
78664;SDS011;67981;51.022;-2.870;2023-05-07T02:56:13;7.43;;;3.83;;
78664;SDS011;67981;51.022;-2.870;2023-05-07T02:58:38;12.43;;;4.65;;
78664;SDS011;67981;51.022;-2.870;2023-05-07T03:01:07;10.93;;;4.43;;
78664;SDS011;67981;51.022;-2.870;2023-05-07T03:03:33;12.70;;;4.28;;
78664;SDS011;67981;51.022;-2.870;2023-05-07T03:05:59;10.25;;;4.10;;
78664;SDS011;67981;51.022;-2.870;2023-05-07T03:08:24;8.00;;;4.47;;
78664;SDS011;67981;51.022;-2.870;2023-05-07T03:10:50;7.85;;;4.05;;
78664;SDS011;67981;51.022;-2.870;2023-05-07T03:13:16;10.60;;;4.32;;
78664;SDS011;67981;51.022;-2.870;2023-05-07T03:15:41;11.00;;;4.28;;
78664;SDS011;67981;51.022;-2.870;2023-05-07T03:18:07;10.85;;;4.40;;
78664;SDS011;67981;51.022;-2.870;2023-05-07T03:20:32;9.65;;;4.28;;
78664;SDS011;67981;51.022;-2.870;2023-05-07T03:22:58;9.95;;;3.95;;
78664;SDS011;67981;51.022;-2.870;2023-05-07T03:25:23;12.20;;;4.75;;
78664;SDS011;67981;51.022;-2.870;2023-05-07T03:27:49;12.98;;;3.58;;
78664;SDS011;67981;51.022;-2.870;2023-05-07T03:30:14;10.52;;;3.47;;
78664;SDS011;67981;51.022;-2.870;2023-05-07T03:32:40;10.90;;;3.95;;
78664;SDS011;67981;51.022;-2.870;2023-05-07T03:35:05;9.00;;;4.68;;
78664;SDS011;67981;51.022;-2.870;2023-05-07T03:37:31;9.02;;;3.35;;
78664;SDS011;67981;51.022;-2.870;2023-05-07T03:39:56;6.70;;;3.65;;
78664;SDS011;67981;51.022;-2.870;2023-05-07T03:42:22;9.93;;;3.78;;
78664;SDS011;67981;51.022;-2.870;2023-05-07T03:44:47;9.75;;;3.92;;
78664;SDS011;67981;51.022;-2.870;2023-05-07T03:47:13;9.13;;;5.90;;
78664;SDS011;67981;51.022;-2.870;2023-05-07T03:49:38;8.55;;;4.10;;
78664;SDS011;67981;51.022;-2.870;2023-05-07T03:52:04;10.85;;;4.07;;
78664;SDS011;67981;51.022;-2.870;2023-05-07T03:54:30;9.27;;;4.68;;
78664;SDS011;67981;51.022;-2.870;2023-05-07T03:56:56;9.00;;;3.85;;
78664;SDS011;67981;51.022;-2.870;2023-05-07T03:59:22;12.02;;;4.30;;
78664;SDS011;67981;51.022;-2.870;2023-05-07T04:01:47;10.65;;;4.38;;
78664;SDS011;67981;51.022;-2.870;2023-05-07T04:04:13;6.93;;;3.80;;
78664;SDS011;67981;51.022;-2.870;2023-05-07T04:06:39;9.88;;;3.95;;
78664;SDS011;67981;51.022;-2.870;2023-05-07T04:09:05;11.88;;;4.07;;
78664;SDS011;67981;51.022;-2.870;2023-05-07T04:11:31;10.07;;;4.00;;
78664;SDS011;67981;51.022;-2.870;2023-05-07T04:13:56;11.40;;;3.78;;
78664;SDS011;67981;51.022;-2.870;2023-05-07T04:16:22;10.75;;;3.80;;
78664;SDS011;67981;51.022;-2.870;2023-05-07T04:18:47;9.35;;;3.13;;
78664;SDS011;67981;51.022;-2.870;2023-05-07T04:21:16;8.03;;;4.53;;
78664;SDS011;67981;51.022;-2.870;2023-05-07T04:23:43;11.43;;;4.18;;
78664;SDS011;67981;51.022;-2.870;2023-05-07T04:26:08;7.55;;;3.85;;
78664;SDS011;67981;51.022;-2.870;2023-05-07T04:28:34;9.93;;;3.50;;
78664;SDS011;67981;51.022;-2.870;2023-05-07T04:30:59;13.73;;;4.50;;
78664;SDS011;67981;51.022;-2.870;2023-05-07T04:33:25;9.57;;;4.28;;
78664;SDS011;67981;51.022;-2.870;2023-05-07T04:35:50;10.07;;;4.40;;
78664;SDS011;67981;51.022;-2.870;2023-05-07T04:38:15;9.45;;;4.03;;
78664;SDS011;67981;51.022;-2.870;2023-05-07T04:40:41;9.43;;;4.90;;
78664;SDS011;67981;51.022;-2.870;2023-05-07T04:43:07;7.32;;;3.53;;
78664;SDS011;67981;51.022;-2.870;2023-05-07T04:45:34;11.13;;;4.32;;
78664;SDS011;67981;51.022;-2.870;2023-05-07T04:48:00;9.20;;;3.60;;
78664;SDS011;67981;51.022;-2.870;2023-05-07T04:50:25;8.55;;;4.28;;
78664;SDS011;67981;51.022;-2.870;2023-05-07T04:52:51;10.35;;;5.35;;
78664;SDS011;67981;51.022;-2.870;2023-05-07T04:55:17;8.90;;;3.47;;
78664;SDS011;67981;51.022;-2.870;2023-05-07T04:57:42;10.82;;;4.07;;
78664;SDS011;67981;51.022;-2.870;2023-05-07T05:00:08;6.87;;;3.40;;
78664;SDS011;67981;51.022;-2.870;2023-05-07T05:02:34;9.32;;;3.92;;
78664;SDS011;67981;51.022;-2.870;2023-05-07T05:05:00;13.57;;;3.85;;
78664;SDS011;67981;51.022;-2.870;2023-05-07T05:07:27;8.90;;;4.68;;
78664;SDS011;67981;51.022;-2.870;2023-05-07T05:09:53;11.43;;;4.90;;
78664;SDS011;67981;51.022;-2.870;2023-05-07T05:12:19;7.32;;;3.88;;
78664;SDS011;67981;51.022;-2.870;2023-05-07T05:14:44;10.05;;;4.25;;
78664;SDS011;67981;51.022;-2.870;2023-05-07T05:17:10;9.52;;;3.60;;
78664;SDS011;67981;51.022;-2.870;2023-05-07T05:19:35;13.35;;;4.53;;
78664;SDS011;67981;51.022;-2.870;2023-05-07T05:22:00;11.82;;;4.45;;
78664;SDS011;67981;51.022;-2.870;2023-05-07T05:24:26;11.00;;;5.30;;
78664;SDS011;67981;51.022;-2.870;2023-05-07T05:26:52;10.00;;;4.53;;
78664;SDS011;67981;51.022;-2.870;2023-05-07T05:29:18;11.60;;;4.63;;
78664;SDS011;67981;51.022;-2.870;2023-05-07T05:31:44;16.98;;;4.20;;
78664;SDS011;67981;51.022;-2.870;2023-05-07T05:34:09;11.27;;;4.28;;
78664;SDS011;67981;51.022;-2.870;2023-05-07T05:36:34;10.05;;;3.75;;
78664;SDS011;67981;51.022;-2.870;2023-05-07T05:39:00;8.52;;;3.55;;
78664;SDS011;67981;51.022;-2.870;2023-05-07T05:41:25;11.52;;;3.90;;
78664;SDS011;67981;51.022;-2.870;2023-05-07T05:43:51;13.70;;;4.30;;
78664;SDS011;67981;51.022;-2.870;2023-05-07T05:46:16;12.32;;;4.43;;
78664;SDS011;67981;51.022;-2.870;2023-05-07T05:48:41;9.20;;;3.67;;
78664;SDS011;67981;51.022;-2.870;2023-05-07T05:51:07;12.80;;;5.10;;
78664;SDS011;67981;51.022;-2.870;2023-05-07T05:53:32;10.52;;;4.30;;
78664;SDS011;67981;51.022;-2.870;2023-05-07T05:55:57;7.35;;;4.55;;
78664;SDS011;67981;51.022;-2.870;2023-05-07T05:58:23;8.07;;;3.67;;
78664;SDS011;67981;51.022;-2.870;2023-05-07T06:00:48;15.75;;;4.75;;
78664;SDS011;67981;51.022;-2.870;2023-05-07T06:03:17;10.05;;;4.18;;
78664;SDS011;67981;51.022;-2.870;2023-05-07T06:05:42;11.73;;;3.90;;
78664;SDS011;67981;51.022;-2.870;2023-05-07T06:08:07;15.82;;;5.22;;
78664;SDS011;67981;51.022;-2.870;2023-05-07T06:10:33;9.38;;;4.15;;
78664;SDS011;67981;51.022;-2.870;2023-05-07T06:12:58;9.52;;;4.25;;
78664;SDS011;67981;51.022;-2.870;2023-05-07T06:15:23;12.50;;;4.43;;
78664;SDS011;67981;51.022;-2.870;2023-05-07T06:17:49;8.70;;;3.72;;
78664;SDS011;67981;51.022;-2.870;2023-05-07T06:20:14;12.15;;;3.97;;
78664;SDS011;67981;51.022;-2.870;2023-05-07T06:22:40;8.52;;;4.38;;
78664;SDS011;67981;51.022;-2.870;2023-05-07T06:25:05;12.23;;;4.47;;
78664;SDS011;67981;51.022;-2.870;2023-05-07T06:27:31;10.48;;;3.60;;
78664;SDS011;67981;51.022;-2.870;2023-05-07T06:29:57;15.00;;;5.72;;
78664;SDS011;67981;51.022;-2.870;2023-05-07T06:32:22;7.90;;;3.72;;
78664;SDS011;67981;51.022;-2.870;2023-05-07T06:34:47;9.68;;;4.30;;
78664;SDS011;67981;51.022;-2.870;2023-05-07T06:37:13;8.18;;;4.75;;
78664;SDS011;67981;51.022;-2.870;2023-05-07T06:39:38;10.43;;;3.63;;
78664;SDS011;67981;51.022;-2.870;2023-05-07T06:42:04;8.35;;;3.45;;
78664;SDS011;67981;51.022;-2.870;2023-05-07T06:44:29;9.65;;;4.15;;
78664;SDS011;67981;51.022;-2.870;2023-05-07T06:46:56;8.48;;;4.25;;
78664;SDS011;67981;51.022;-2.870;2023-05-07T06:49:21;9.00;;;4.07;;
78664;SDS011;67981;51.022;-2.870;2023-05-07T06:51:47;7.75;;;3.58;;
78664;SDS011;67981;51.022;-2.870;2023-05-07T06:54:12;7.60;;;3.05;;
78664;SDS011;67981;51.022;-2.870;2023-05-07T06:56:38;9.80;;;3.22;;
78664;SDS011;67981;51.022;-2.870;2023-05-07T06:59:03;10.60;;;3.75;;
78664;SDS011;67981;51.022;-2.870;2023-05-07T07:01:28;7.75;;;4.38;;
78664;SDS011;67981;51.022;-2.870;2023-05-07T07:03:54;8.40;;;4.28;;
78664;SDS011;67981;51.022;-2.870;2023-05-07T07:06:19;6.93;;;3.17;;
78664;SDS011;67981;51.022;-2.870;2023-05-07T07:08:45;8.68;;;4.07;;
78664;SDS011;67981;51.022;-2.870;2023-05-07T07:11:10;10.50;;;4.32;;
78664;SDS011;67981;51.022;-2.870;2023-05-07T07:13:36;11.75;;;4.25;;
78664;SDS011;67981;51.022;-2.870;2023-05-07T07:16:02;13.82;;;4.07;;
78664;SDS011;67981;51.022;-2.870;2023-05-07T07:18:27;10.02;;;3.85;;
78664;SDS011;67981;51.022;-2.870;2023-05-07T07:20:53;10.80;;;4.33;;
78664;SDS011;67981;51.022;-2.870;2023-05-07T07:23:18;9.50;;;4.20;;
78664;SDS011;67981;51.022;-2.870;2023-05-07T07:25:44;11.25;;;4.22;;
78664;SDS011;67981;51.022;-2.870;2023-05-07T07:28:09;8.15;;;3.40;;
78664;SDS011;67981;51.022;-2.870;2023-05-07T07:30:36;11.43;;;3.88;;
78664;SDS011;67981;51.022;-2.870;2023-05-07T07:33:01;11.77;;;4.07;;
78664;SDS011;67981;51.022;-2.870;2023-05-07T07:35:34;7.95;;;3.15;;
78664;SDS011;67981;51.022;-2.870;2023-05-07T07:38:00;10.00;;;3.38;;
78664;SDS011;67981;51.022;-2.870;2023-05-07T07:40:26;7.85;;;3.25;;
78664;SDS011;67981;51.022;-2.870;2023-05-07T07:42:52;7.97;;;3.13;;
78664;SDS011;67981;51.022;-2.870;2023-05-07T07:45:18;9.80;;;3.13;;
78664;SDS011;67981;51.022;-2.870;2023-05-07T07:47:43;10.57;;;2.90;;
78664;SDS011;67981;51.022;-2.870;2023-05-07T07:50:09;6.32;;;2.50;;
78664;SDS011;67981;51.022;-2.870;2023-05-07T07:52:35;7.45;;;3.10;;
78664;SDS011;67981;51.022;-2.870;2023-05-07T07:55:01;12.68;;;3.83;;
78664;SDS011;67981;51.022;-2.870;2023-05-07T07:57:26;6.88;;;3.58;;
78664;SDS011;67981;51.022;-2.870;2023-05-07T07:59:52;9.90;;;2.95;;
78664;SDS011;67981;51.022;-2.870;2023-05-07T08:02:17;7.53;;;2.93;;
78664;SDS011;67981;51.022;-2.870;2023-05-07T08:04:43;9.30;;;2.78;;
78664;SDS011;67981;51.022;-2.870;2023-05-07T08:07:09;11.98;;;3.63;;
78664;SDS011;67981;51.022;-2.870;2023-05-07T08:09:35;13.15;;;3.97;;
78664;SDS011;67981;51.022;-2.870;2023-05-07T08:12:00;8.68;;;3.50;;
78664;SDS011;67981;51.022;-2.870;2023-05-07T08:14:26;9.73;;;2.40;;
78664;SDS011;67981;51.022;-2.870;2023-05-07T08:16:53;6.68;;;2.65;;
78664;SDS011;67981;51.022;-2.870;2023-05-07T08:19:19;8.20;;;2.83;;
78664;SDS011;67981;51.022;-2.870;2023-05-07T08:21:44;6.25;;;2.03;;
78664;SDS011;67981;51.022;-2.870;2023-05-07T08:24:12;6.70;;;2.78;;
78664;SDS011;67981;51.022;-2.870;2023-05-07T08:26:38;7.57;;;2.90;;
78664;SDS011;67981;51.022;-2.870;2023-05-07T08:29:04;5.18;;;2.40;;
78664;SDS011;67981;51.022;-2.870;2023-05-07T08:31:29;6.57;;;1.90;;
78664;SDS011;67981;51.022;-2.870;2023-05-07T08:33:55;10.20;;;2.75;;
78664;SDS011;67981;51.022;-2.870;2023-05-07T08:36:21;16.63;;;3.58;;
78664;SDS011;67981;51.022;-2.870;2023-05-07T08:38:46;6.10;;;2.23;;
78664;SDS011;67981;51.022;-2.870;2023-05-07T08:41:11;5.32;;;2.03;;
78664;SDS011;67981;51.022;-2.870;2023-05-07T08:43:37;6.57;;;2.40;;
78664;SDS011;67981;51.022;-2.870;2023-05-07T08:46:03;5.72;;;2.50;;
78664;SDS011;67981;51.022;-2.870;2023-05-07T08:48:30;5.13;;;2.22;;
78664;SDS011;67981;51.022;-2.870;2023-05-07T08:50:57;11.48;;;2.47;;
78664;SDS011;67981;51.022;-2.870;2023-05-07T08:53:23;5.95;;;2.40;;
78664;SDS011;67981;51.022;-2.870;2023-05-07T08:55:49;8.18;;;2.55;;
78664;SDS011;67981;51.022;-2.870;2023-05-07T08:58:16;6.07;;;1.92;;
78664;SDS011;67981;51.022;-2.870;2023-05-07T09:00:41;5.03;;;2.47;;
78664;SDS011;67981;51.022;-2.870;2023-05-07T09:03:07;10.23;;;2.55;;
78664;SDS011;67981;51.022;-2.870;2023-05-07T09:05:32;6.57;;;2.45;;
78664;SDS011;67981;51.022;-2.870;2023-05-07T09:07:59;7.80;;;3.38;;
78664;SDS011;67981;51.022;-2.870;2023-05-07T09:10:25;7.65;;;2.45;;
78664;SDS011;67981;51.022;-2.870;2023-05-07T09:12:51;6.68;;;2.10;;
78664;SDS011;67981;51.022;-2.870;2023-05-07T09:15:16;7.07;;;2.22;;
78664;SDS011;67981;51.022;-2.870;2023-05-07T09:17:43;11.23;;;3.58;;
78664;SDS011;67981;51.022;-2.870;2023-05-07T09:20:08;6.28;;;2.92;;
78664;SDS011;67981;51.022;-2.870;2023-05-07T09:22:37;7.38;;;2.55;;
78664;SDS011;67981;51.022;-2.870;2023-05-07T09:25:03;9.10;;;3.05;;
78664;SDS011;67981;51.022;-2.870;2023-05-07T09:27:30;8.80;;;2.83;;
78664;SDS011;67981;51.022;-2.870;2023-05-07T09:29:55;6.90;;;2.20;;
78664;SDS011;67981;51.022;-2.870;2023-05-07T09:32:21;5.10;;;2.03;;
78664;SDS011;67981;51.022;-2.870;2023-05-07T09:34:46;5.53;;;2.85;;
78664;SDS011;67981;51.022;-2.870;2023-05-07T09:37:12;6.18;;;2.28;;
78664;SDS011;67981;51.022;-2.870;2023-05-07T09:39:48;9.93;;;2.53;;
78664;SDS011;67981;51.022;-2.870;2023-05-07T09:42:14;8.75;;;2.88;;
78664;SDS011;67981;51.022;-2.870;2023-05-07T09:44:40;4.57;;;3.05;;
78664;SDS011;67981;51.022;-2.870;2023-05-07T09:47:08;7.47;;;2.67;;
78664;SDS011;67981;51.022;-2.870;2023-05-07T09:49:35;8.32;;;2.20;;
78664;SDS011;67981;51.022;-2.870;2023-05-07T09:52:02;5.28;;;2.30;;
78664;SDS011;67981;51.022;-2.870;2023-05-07T09:54:31;8.23;;;2.15;;
78664;SDS011;67981;51.022;-2.870;2023-05-07T09:56:58;5.13;;;2.80;;
78664;SDS011;67981;51.022;-2.870;2023-05-07T09:59:27;8.73;;;2.35;;
78664;SDS011;67981;51.022;-2.870;2023-05-07T10:01:55;7.82;;;2.22;;
78664;SDS011;67981;51.022;-2.870;2023-05-07T10:04:23;9.05;;;2.97;;
78664;SDS011;67981;51.022;-2.870;2023-05-07T10:06:49;6.30;;;2.50;;
78664;SDS011;67981;51.022;-2.870;2023-05-07T10:09:15;7.20;;;2.50;;
78664;SDS011;67981;51.022;-2.870;2023-05-07T10:11:41;4.75;;;2.20;;
78664;SDS011;67981;51.022;-2.870;2023-05-07T10:14:08;4.75;;;2.20;;
78664;SDS011;67981;51.022;-2.870;2023-05-07T10:16:35;4.13;;;2.25;;
78664;SDS011;67981;51.022;-2.870;2023-05-07T10:19:04;7.07;;;2.25;;
78664;SDS011;67981;51.022;-2.870;2023-05-07T10:21:32;7.43;;;2.55;;
78664;SDS011;67981;51.022;-2.870;2023-05-07T10:24:08;6.10;;;2.13;;
78664;SDS011;67981;51.022;-2.870;2023-05-07T10:26:38;7.88;;;2.33;;
78664;SDS011;67981;51.022;-2.870;2023-05-07T10:35:06;4.40;;;2.30;;
78664;SDS011;67981;51.022;-2.870;2023-05-07T10:37:39;7.03;;;2.60;;
78664;SDS011;67981;51.022;-2.870;2023-05-07T10:40:05;8.18;;;3.10;;
78664;SDS011;67981;51.022;-2.870;2023-05-07T10:42:32;6.32;;;2.00;;
78664;SDS011;67981;51.022;-2.870;2023-05-07T10:44:57;7.57;;;2.08;;
78664;SDS011;67981;51.022;-2.870;2023-05-07T10:47:36;11.30;;;2.30;;
78664;SDS011;67981;51.022;-2.870;2023-05-07T10:50:41;5.80;;;2.83;;
78664;SDS011;67981;51.022;-2.870;2023-05-07T10:55:42;4.65;;;2.20;;
78664;SDS011;67981;51.022;-2.870;2023-05-07T10:58:24;7.40;;;2.00;;
78664;SDS011;67981;51.022;-2.870;2023-05-07T11:00:55;5.88;;;1.83;;
78664;SDS011;67981;51.022;-2.870;2023-05-07T11:03:25;7.72;;;2.45;;
78664;SDS011;67981;51.022;-2.870;2023-05-07T11:11:43;8.45;;;2.47;;
78664;SDS011;67981;51.022;-2.870;2023-05-07T11:17:05;5.20;;;2.40;;
78664;SDS011;67981;51.022;-2.870;2023-05-07T11:19:48;6.00;;;2.13;;
78664;SDS011;67981;51.022;-2.870;2023-05-07T11:24:55;6.47;;;2.72;;
78664;SDS011;67981;51.022;-2.870;2023-05-07T11:27:23;5.88;;;2.75;;
78664;SDS011;67981;51.022;-2.870;2023-05-07T11:29:49;3.80;;;1.85;;
78664;SDS011;67981;51.022;-2.870;2023-05-07T11:32:15;12.13;;;3.53;;
78664;SDS011;67981;51.022;-2.870;2023-05-07T11:34:47;4.88;;;2.13;;
78664;SDS011;67981;51.022;-2.870;2023-05-07T11:37:16;3.88;;;1.75;;
78664;SDS011;67981;51.022;-2.870;2023-05-07T11:39:42;5.75;;;2.28;;
78664;SDS011;67981;51.022;-2.870;2023-05-07T11:42:24;8.68;;;2.33;;
78664;SDS011;67981;51.022;-2.870;2023-05-07T11:44:52;7.82;;;1.88;;
78664;SDS011;67981;51.022;-2.870;2023-05-07T11:47:18;7.25;;;2.80;;
78664;SDS011;67981;51.022;-2.870;2023-05-07T11:49:48;6.70;;;3.22;;
78664;SDS011;67981;51.022;-2.870;2023-05-07T11:52:15;8.10;;;2.25;;
78664;SDS011;67981;51.022;-2.870;2023-05-07T11:54:54;7.20;;;2.45;;
78664;SDS011;67981;51.022;-2.870;2023-05-07T11:57:21;4.80;;;2.22;;
78664;SDS011;67981;51.022;-2.870;2023-05-07T11:59:47;8.00;;;2.38;;
78664;SDS011;67981;51.022;-2.870;2023-05-07T12:02:17;5.47;;;2.45;;
78664;SDS011;67981;51.022;-2.870;2023-05-07T12:04:43;5.18;;;2.20;;
78664;SDS011;67981;51.022;-2.870;2023-05-07T12:07:15;7.68;;;2.45;;
78664;SDS011;67981;51.022;-2.870;2023-05-07T12:09:42;4.85;;;2.13;;
78664;SDS011;67981;51.022;-2.870;2023-05-07T12:12:08;6.10;;;2.20;;
78664;SDS011;67981;51.022;-2.870;2023-05-07T12:14:37;7.43;;;2.38;;
78664;SDS011;67981;51.022;-2.870;2023-05-07T12:17:07;8.93;;;2.47;;
78664;SDS011;67981;51.022;-2.870;2023-05-07T12:19:33;5.40;;;2.33;;
78664;SDS011;67981;51.022;-2.870;2023-05-07T12:21:59;5.68;;;2.33;;
78664;SDS011;67981;51.022;-2.870;2023-05-07T12:24:26;6.68;;;2.10;;
78664;SDS011;67981;51.022;-2.870;2023-05-07T12:26:51;9.32;;;2.83;;
78664;SDS011;67981;51.022;-2.870;2023-05-07T12:29:16;5.43;;;2.75;;
78664;SDS011;67981;51.022;-2.870;2023-05-07T12:31:46;9.20;;;2.03;;
78664;SDS011;67981;51.022;-2.870;2023-05-07T12:34:11;10.55;;;2.80;;
78664;SDS011;67981;51.022;-2.870;2023-05-07T12:36:37;8.27;;;2.50;;
78664;SDS011;67981;51.022;-2.870;2023-05-07T12:39:06;7.68;;;2.40;;
78664;SDS011;67981;51.022;-2.870;2023-05-07T12:41:51;6.90;;;2.53;;
78664;SDS011;67981;51.022;-2.870;2023-05-07T12:44:18;7.30;;;2.22;;
78664;SDS011;67981;51.022;-2.870;2023-05-07T12:46:44;4.80;;;2.28;;
78664;SDS011;67981;51.022;-2.870;2023-05-07T12:49:09;6.00;;;1.88;;
78664;SDS011;67981;51.022;-2.870;2023-05-07T12:51:35;10.45;;;3.65;;
78664;SDS011;67981;51.022;-2.870;2023-05-07T12:54:00;7.30;;;2.10;;
78664;SDS011;67981;51.022;-2.870;2023-05-07T12:56:26;5.67;;;2.67;;
78664;SDS011;67981;51.022;-2.870;2023-05-07T12:58:51;3.67;;;2.43;;
78664;SDS011;67981;51.022;-2.870;2023-05-07T13:01:18;7.68;;;2.10;;
78664;SDS011;67981;51.022;-2.870;2023-05-07T13:03:47;6.22;;;2.60;;
78664;SDS011;67981;51.022;-2.870;2023-05-07T13:06:13;6.28;;;2.20;;
78664;SDS011;67981;51.022;-2.870;2023-05-07T13:08:40;10.82;;;3.53;;
78664;SDS011;67981;51.022;-2.870;2023-05-07T13:11:08;6.95;;;2.35;;
78664;SDS011;67981;51.022;-2.870;2023-05-07T13:13:35;9.15;;;2.53;;
78664;SDS011;67981;51.022;-2.870;2023-05-07T13:16:03;6.18;;;2.30;;
78664;SDS011;67981;51.022;-2.870;2023-05-07T13:18:29;3.78;;;2.42;;
78664;SDS011;67981;51.022;-2.870;2023-05-07T13:20:56;5.10;;;2.00;;
78664;SDS011;67981;51.022;-2.870;2023-05-07T13:23:21;6.32;;;2.10;;
78664;SDS011;67981;51.022;-2.870;2023-05-07T13:25:47;7.35;;;2.53;;
78664;SDS011;67981;51.022;-2.870;2023-05-07T13:28:14;3.85;;;2.40;;
78664;SDS011;67981;51.022;-2.870;2023-05-07T13:30:39;7.80;;;2.25;;
78664;SDS011;67981;51.022;-2.870;2023-05-07T13:33:08;7.47;;;1.92;;
78664;SDS011;67981;51.022;-2.870;2023-05-07T13:35:34;9.93;;;2.50;;
78664;SDS011;67981;51.022;-2.870;2023-05-07T13:38:00;4.75;;;1.85;;
78664;SDS011;67981;51.022;-2.870;2023-05-07T13:40:25;6.90;;;2.10;;
78664;SDS011;67981;51.022;-2.870;2023-05-07T13:42:51;7.57;;;2.45;;
78664;SDS011;67981;51.022;-2.870;2023-05-07T13:45:19;5.47;;;2.60;;
78664;SDS011;67981;51.022;-2.870;2023-05-07T13:47:45;4.28;;;2.20;;
78664;SDS011;67981;51.022;-2.870;2023-05-07T13:50:12;7.45;;;2.30;;
78664;SDS011;67981;51.022;-2.870;2023-05-07T13:52:41;7.45;;;2.28;;
78664;SDS011;67981;51.022;-2.870;2023-05-07T13:55:08;7.32;;;2.53;;
78664;SDS011;67981;51.022;-2.870;2023-05-07T13:57:35;4.82;;;2.50;;
78664;SDS011;67981;51.022;-2.870;2023-05-07T14:00:00;8.07;;;3.45;;
78664;SDS011;67981;51.022;-2.870;2023-05-07T14:02:26;9.25;;;3.72;;
78664;SDS011;67981;51.022;-2.870;2023-05-07T14:04:51;8.43;;;2.40;;
78664;SDS011;67981;51.022;-2.870;2023-05-07T14:07:17;8.00;;;2.80;;
78664;SDS011;67981;51.022;-2.870;2023-05-07T14:09:42;8.95;;;3.05;;
78664;SDS011;67981;51.022;-2.870;2023-05-07T14:12:07;6.57;;;3.08;;
78664;SDS011;67981;51.022;-2.870;2023-05-07T14:14:33;8.30;;;4.32;;
78664;SDS011;67981;51.022;-2.870;2023-05-07T14:16:58;6.13;;;3.37;;
78664;SDS011;67981;51.022;-2.870;2023-05-07T14:19:24;6.47;;;3.08;;
78664;SDS011;67981;51.022;-2.870;2023-05-07T14:21:49;5.83;;;3.10;;
78664;SDS011;67981;51.022;-2.870;2023-05-07T14:24:14;10.05;;;3.33;;
78664;SDS011;67981;51.022;-2.870;2023-05-07T14:26:40;7.80;;;3.55;;
78664;SDS011;67981;51.022;-2.870;2023-05-07T14:29:05;7.43;;;3.17;;
78664;SDS011;67981;51.022;-2.870;2023-05-07T14:31:30;6.63;;;3.22;;
78664;SDS011;67981;51.022;-2.870;2023-05-07T14:33:56;7.57;;;2.80;;
78664;SDS011;67981;51.022;-2.870;2023-05-07T14:36:23;9.57;;;3.47;;
78664;SDS011;67981;51.022;-2.870;2023-05-07T14:38:51;10.00;;;3.35;;
78664;SDS011;67981;51.022;-2.870;2023-05-07T14:41:16;6.30;;;3.08;;
78664;SDS011;67981;51.022;-2.870;2023-05-07T14:43:42;9.57;;;2.88;;
78664;SDS011;67981;51.022;-2.870;2023-05-07T14:46:07;10.00;;;4.17;;